createdAt,value
2022-07-31T00:00:13.263Z,19.50
2022-07-31T00:02:40.125Z,19.47
2022-07-31T00:05:07.414Z,19.45
2022-07-31T00:07:34.334Z,19.48
2022-07-31T00:10:01.186Z,19.50
2022-07-31T00:12:28.061Z,19.50
2022-07-31T00:14:54.937Z,19.51
2022-07-31T00:17:21.870Z,19.42
2022-07-31T00:19:48.850Z,19.43
2022-07-31T00:22:15.823Z,19.47
2022-07-31T00:24:42.754Z,19.43
2022-07-31T00:27:10.890Z,19.36
2022-07-31T00:29:38.646Z,19.46
2022-07-31T00:32:06.100Z,19.44
2022-07-31T00:34:33.055Z,19.47
2022-07-31T00:37:00.045Z,19.52
2022-07-31T00:39:27.073Z,19.50
2022-07-31T00:41:55.120Z,19.44
2022-07-31T00:44:22.034Z,19.46
2022-07-31T00:46:49.941Z,19.48
2022-07-31T00:49:16.997Z,19.42
2022-07-31T00:51:43.859Z,19.43
2022-07-31T00:54:22.367Z,19.43
2022-07-31T00:56:51.309Z,19.33
2022-07-31T00:59:24.380Z,19.34
2022-07-31T01:01:51.877Z,19.31
2022-07-31T01:04:19.862Z,19.27
2022-07-31T01:06:47.384Z,19.23
2022-07-31T01:09:15.000Z,19.21
2022-07-31T01:12:07.849Z,19.09
2022-07-31T01:14:39.444Z,19.14
2022-07-31T01:17:07.267Z,19.10
2022-07-31T01:19:43.577Z,19.08
2022-07-31T01:22:47.574Z,19.01
2022-07-31T01:25:41.518Z,18.95
2022-07-31T01:28:26.959Z,18.97
2022-07-31T01:31:25.570Z,18.98
2022-07-31T01:33:54.072Z,18.98
2022-07-31T01:36:24.130Z,18.86
2022-07-31T01:38:52.857Z,18.97
2022-07-31T01:41:25.408Z,18.96
2022-07-31T01:43:58.905Z,18.90
2022-07-31T01:46:27.800Z,18.94
2022-07-31T01:48:56.367Z,18.96
2022-07-31T01:51:24.100Z,19.02
2022-07-31T01:53:51.620Z,18.97
2022-07-31T01:56:19.330Z,18.93
2022-07-31T01:58:47.418Z,18.96
2022-07-31T02:01:16.502Z,18.46
2022-07-31T02:03:45.404Z,19.02
2022-07-31T02:06:14.741Z,18.97
2022-07-31T02:08:44.061Z,19.03
2022-07-31T02:11:11.037Z,18.98
2022-07-31T02:13:38.220Z,18.95
2022-07-31T02:16:05.852Z,19.02
2022-07-31T02:18:33.135Z,18.98
2022-07-31T02:20:59.970Z,19.03
2022-07-31T02:23:26.897Z,19.06
2022-07-31T02:25:54.101Z,19.03
2022-07-31T02:28:22.249Z,18.98
2022-07-31T02:30:50.187Z,19.02
2022-07-31T02:33:22.445Z,19.01
2022-07-31T02:35:50.833Z,18.90
2022-07-31T02:38:23.141Z,19.01
2022-07-31T02:40:51.549Z,18.98
2022-07-31T02:43:19.047Z,18.93
2022-07-31T02:45:46.335Z,18.90
2022-07-31T02:48:13.236Z,19.01
2022-07-31T02:50:40.121Z,18.97
2022-07-31T02:53:07.029Z,19.01
2022-07-31T02:55:34.127Z,18.75
2022-07-31T02:58:03.216Z,18.78
2022-07-31T03:00:30.922Z,18.79
2022-07-31T03:02:58.330Z,18.80
2022-07-31T03:05:25.408Z,18.79
2022-07-31T03:07:52.260Z,18.78
2022-07-31T03:10:19.447Z,18.73
2022-07-31T03:12:49.232Z,18.69
2022-07-31T03:15:21.323Z,18.60
2022-07-31T03:17:48.655Z,18.57
2022-07-31T03:20:16.144Z,18.59
2022-07-31T03:22:43.374Z,18.59
2022-07-31T03:25:11.390Z,18.50
2022-07-31T03:27:56.014Z,18.62
2022-07-31T03:30:27.174Z,18.66
2022-07-31T03:32:55.499Z,18.60
2022-07-31T03:35:24.110Z,18.60
2022-07-31T03:37:51.784Z,18.65
2022-07-31T03:40:18.717Z,18.56
2022-07-31T03:42:46.537Z,18.66
2022-07-31T03:45:13.891Z,18.69
2022-07-31T03:47:40.954Z,18.60
2022-07-31T03:50:08.826Z,18.68
2022-07-31T03:52:36.288Z,18.67
2022-07-31T03:55:03.266Z,18.65
2022-07-31T03:57:33.216Z,18.64
2022-07-31T04:00:03.190Z,18.55
2022-07-31T04:02:31.857Z,18.64
2022-07-31T04:04:59.655Z,18.64
2022-07-31T04:07:26.780Z,18.51
2022-07-31T04:09:54.300Z,18.41
2022-07-31T04:12:21.142Z,18.26
2022-07-31T04:14:48.097Z,18.27
2022-07-31T04:17:14.981Z,18.32
2022-07-31T04:19:41.814Z,18.32
2022-07-31T04:22:09.251Z,18.32
2022-07-31T04:24:36.388Z,18.36
2022-07-31T04:27:08.087Z,18.31
2022-07-31T04:29:35.079Z,18.31
2022-07-31T04:32:02.155Z,18.29
2022-07-31T04:34:29.235Z,18.12
2022-07-31T04:36:56.153Z,18.26
2022-07-31T04:39:22.977Z,18.27
2022-07-31T04:41:49.876Z,18.27
2022-07-31T04:44:16.901Z,18.29
2022-07-31T04:46:43.990Z,18.29
2022-07-31T04:49:15.237Z,18.23
2022-07-31T04:51:42.803Z,18.19
2022-07-31T04:54:10.844Z,18.16
2022-07-31T04:56:41.842Z,18.04
2022-07-31T04:59:13.813Z,17.99
2022-07-31T05:01:41.821Z,17.83
2022-07-31T05:04:10.764Z,17.71
2022-07-31T05:06:40.060Z,17.31
2022-07-31T05:09:10.736Z,17.23
2022-07-31T05:11:41.809Z,17.15
2022-07-31T05:14:10.221Z,17.10
2022-07-31T05:16:37.486Z,17.16
2022-07-31T05:19:05.698Z,17.14
2022-07-31T05:21:46.986Z,17.18
2022-07-31T05:24:32.714Z,17.14
2022-07-31T05:27:03.819Z,17.10
2022-07-31T05:29:32.125Z,17.07
2022-07-31T05:31:59.996Z,17.02
2022-07-31T05:34:31.108Z,17.02
2022-07-31T05:37:02.488Z,17.09
2022-07-31T05:39:30.226Z,17.01
2022-07-31T05:41:57.348Z,17.08
2022-07-31T05:44:24.786Z,16.98
2022-07-31T05:49:18.426Z,16.95
2022-07-31T05:51:46.676Z,17.06
2022-07-31T05:54:13.967Z,16.89
2022-07-31T05:56:40.814Z,16.83
2022-07-31T05:59:07.742Z,16.80
2022-07-31T06:01:34.647Z,16.87
2022-07-31T06:04:02.665Z,16.96
2022-07-31T06:06:29.576Z,16.86
2022-07-31T06:09:00.622Z,16.97
2022-07-31T06:11:30.820Z,17.06
2022-07-31T06:13:58.335Z,16.97
2022-07-31T06:16:27.872Z,17.16
2022-07-31T06:18:54.711Z,17.11
2022-07-31T06:23:47.523Z,17.08
2022-07-31T06:26:14.872Z,17.28
2022-07-31T06:28:48.948Z,17.31
2022-07-31T06:31:22.612Z,17.22
2022-07-31T06:33:51.013Z,17.20
2022-07-31T06:36:19.629Z,17.28
2022-07-31T06:38:46.721Z,17.24
2022-07-31T06:41:33.648Z,17.21
2022-07-31T06:44:00.526Z,17.21
2022-07-31T06:46:27.494Z,17.16
2022-07-31T06:48:54.376Z,17.20
2022-07-31T06:51:30.692Z,17.28
2022-07-31T06:53:59.151Z,17.28
2022-07-31T06:56:25.950Z,17.35
2022-07-31T06:58:53.333Z,17.17
2022-07-31T07:01:20.268Z,17.29
2022-07-31T07:03:47.527Z,17.23
2022-07-31T07:06:14.666Z,17.25
2022-07-31T07:08:42.546Z,17.24
2022-07-31T07:11:12.252Z,17.25
2022-07-31T07:13:45.948Z,17.28
2022-07-31T07:16:15.610Z,17.43
2022-07-31T07:18:43.338Z,17.47
2022-07-31T07:21:11.365Z,17.54
2022-07-31T07:23:38.401Z,17.62
2022-07-31T07:26:05.957Z,17.68
2022-07-31T07:28:33.424Z,17.65
2022-07-31T07:31:00.589Z,17.74
2022-07-31T07:33:41.378Z,17.78
2022-07-31T07:36:23.002Z,17.88
2022-07-31T07:38:50.644Z,17.86
2022-07-31T07:41:18.530Z,17.83
2022-07-31T07:43:45.789Z,18.04
2022-07-31T07:46:18.693Z,18.19
2022-07-31T07:48:45.947Z,18.59
2022-07-31T07:51:13.641Z,18.60
2022-07-31T07:53:40.557Z,18.59
2022-07-31T07:56:07.640Z,18.72
2022-07-31T07:58:34.507Z,18.84
2022-07-31T08:01:01.710Z,19.04
2022-07-31T08:03:48.754Z,18.94
2022-07-31T08:06:15.549Z,18.80
2022-07-31T08:08:42.587Z,18.92
2022-07-31T08:11:09.486Z,19.01
2022-07-31T08:13:36.337Z,18.90
2022-07-31T08:16:05.796Z,18.84
2022-07-31T08:18:32.618Z,19.09
2022-07-31T08:20:59.439Z,19.10
2022-07-31T08:23:26.414Z,19.01
2022-07-31T08:25:53.723Z,18.81
2022-07-31T08:28:25.737Z,18.72
2022-07-31T08:30:52.885Z,19.03
2022-07-31T08:33:19.925Z,19.13
2022-07-31T08:35:50.491Z,18.89
2022-07-31T08:38:18.776Z,19.05
2022-07-31T08:40:46.674Z,19.26
2022-07-31T08:44:03.355Z,19.16
2022-07-31T08:46:04.515Z,19.24
2022-07-31T08:48:33.154Z,19.40
2022-07-31T08:51:03.479Z,19.49
2022-07-31T08:53:33.047Z,19.59
2022-07-31T08:56:00.598Z,19.59
2022-07-31T08:58:27.402Z,19.82
2022-07-31T09:00:55.165Z,19.82
2022-07-31T09:03:22.226Z,19.77
2022-07-31T09:05:49.422Z,19.90
2022-07-31T09:08:16.417Z,19.89
2022-07-31T09:10:49.267Z,20.00
2022-07-31T09:13:18.231Z,19.82
2022-07-31T09:15:45.204Z,19.67
2022-07-31T09:18:22.277Z,19.80
2022-07-31T09:20:57.605Z,19.85
2022-07-31T09:23:25.292Z,19.81
2022-07-31T09:26:03.213Z,20.10
2022-07-31T09:28:38.350Z,20.22
2022-07-31T09:31:06.960Z,20.20
2022-07-31T09:33:34.247Z,19.96
2022-07-31T09:36:01.129Z,20.05
2022-07-31T09:38:44.519Z,20.01
2022-07-31T09:41:53.549Z,19.94
2022-07-31T09:44:10.544Z,20.15
2022-07-31T09:46:48.338Z,20.40
2022-07-31T09:49:15.577Z,19.90
2022-07-31T09:51:45.665Z,20.20
2022-07-31T09:54:23.011Z,20.34
2022-07-31T09:56:50.474Z,20.10
2022-07-31T09:59:17.965Z,20.29
2022-07-31T10:01:48.878Z,19.77
2022-07-31T10:04:21.045Z,19.62
2022-07-31T10:06:50.302Z,19.70
2022-07-31T10:09:19.694Z,19.21
2022-07-31T10:11:47.433Z,19.33
2022-07-31T10:14:19.729Z,19.35
2022-07-31T10:16:47.275Z,19.58
2022-07-31T10:19:15.176Z,19.16
2022-07-31T10:21:44.647Z,19.37
2022-07-31T10:24:12.610Z,18.95
2022-07-31T10:26:59.689Z,18.92
2022-07-31T10:29:27.104Z,18.91
2022-07-31T10:31:59.074Z,18.87
2022-07-31T10:34:26.846Z,18.95
2022-07-31T10:36:55.209Z,19.06
2022-07-31T10:39:40.269Z,19.36
2022-07-31T10:42:29.058Z,19.62
2022-07-31T10:45:04.855Z,19.76
2022-07-31T10:53:15.440Z,19.56
2022-07-31T10:55:43.195Z,19.51
2022-07-31T10:58:19.809Z,19.29
2022-07-31T11:00:46.694Z,19.49
2022-07-31T11:03:19.441Z,19.67
2022-07-31T11:06:01.362Z,19.73
2022-07-31T11:08:40.810Z,19.58
2022-07-31T11:11:07.626Z,19.47
2022-07-31T11:13:50.336Z,19.51
2022-07-31T11:16:18.622Z,19.47
2022-07-31T11:19:00.945Z,19.39
2022-07-31T11:21:40.002Z,19.22
2022-07-31T11:24:22.217Z,19.47
2022-07-31T11:26:54.345Z,19.41
2022-07-31T11:29:59.106Z,19.11
2022-07-31T11:32:22.900Z,19.36
2022-07-31T11:34:58.815Z,19.29
2022-07-31T11:37:39.468Z,19.16
2022-07-31T11:40:14.545Z,19.13
2022-07-31T11:42:46.376Z,19.16
2022-07-31T11:45:16.765Z,19.14
2022-07-31T11:48:10.956Z,19.04
2022-07-31T11:50:42.233Z,19.11
2022-07-31T11:53:09.254Z,19.11
2022-07-31T11:55:53.926Z,19.27
2022-07-31T11:58:23.427Z,19.31
2022-07-31T12:01:08.510Z,19.27
2022-07-31T12:03:37.472Z,19.05
2022-07-31T12:06:05.562Z,18.93
2022-07-31T12:08:32.876Z,19.02
2022-07-31T12:11:00.522Z,19.09
2022-07-31T12:13:28.562Z,19.09
2022-07-31T12:16:01.673Z,19.01
2022-07-31T12:18:29.888Z,18.99
2022-07-31T12:21:04.908Z,18.96
2022-07-31T12:24:02.325Z,18.95
2022-07-31T12:26:33.375Z,18.70
2022-07-31T12:29:10.825Z,18.77
2022-07-31T12:31:55.629Z,18.65
2022-07-31T12:34:42.360Z,18.64
2022-07-31T12:37:11.664Z,18.66
2022-07-31T12:39:59.316Z,18.55
2022-07-31T12:42:36.407Z,18.55
2022-07-31T12:45:20.080Z,18.64
2022-07-31T12:47:52.169Z,18.58
2022-07-31T12:50:23.532Z,18.43
2022-07-31T12:52:50.426Z,18.55
2022-07-31T12:55:17.872Z,18.39
2022-07-31T12:57:50.347Z,18.70
2022-07-31T13:00:23.515Z,18.62
2022-07-31T13:02:54.589Z,18.37
2022-07-31T13:05:22.309Z,18.55
2022-07-31T13:07:49.678Z,18.51
2022-07-31T13:10:21.723Z,18.64
2022-07-31T13:12:51.563Z,18.75
2022-07-31T13:15:20.885Z,18.55
2022-07-31T13:17:50.727Z,18.41
2022-07-31T13:20:18.758Z,18.54
2022-07-31T13:22:45.796Z,18.47
2022-07-31T13:25:13.074Z,18.40
2022-07-31T13:27:41.818Z,18.62
2022-07-31T13:30:10.029Z,18.65
2022-07-31T13:32:37.081Z,18.64
2022-07-31T13:35:25.417Z,18.79
2022-07-31T13:37:53.730Z,18.64
2022-07-31T13:40:40.837Z,18.64
2022-07-31T13:43:07.824Z,18.74
2022-07-31T13:45:35.574Z,18.61
2022-07-31T13:48:05.635Z,18.61
2022-07-31T13:50:37.355Z,18.69
2022-07-31T13:55:31.865Z,18.52
2022-07-31T13:57:59.667Z,18.35
2022-07-31T14:00:28.996Z,18.44
2022-07-31T14:02:56.038Z,18.40
2022-07-31T14:05:25.832Z,18.26
2022-07-31T14:07:54.835Z,18.45
2022-07-31T14:10:22.803Z,18.31
2022-07-31T14:12:50.134Z,18.16
2022-07-31T14:15:18.273Z,18.10
2022-07-31T14:17:45.813Z,18.10
2022-07-31T14:20:13.811Z,17.96
2022-07-31T14:22:41.379Z,17.84
2022-07-31T14:25:09.531Z,17.76
2022-07-31T14:27:38.602Z,17.54
2022-07-31T14:30:07.200Z,17.60
2022-07-31T14:32:34.562Z,17.67
2022-07-31T14:35:07.407Z,17.68
2022-07-31T14:37:34.978Z,17.30
2022-07-31T14:40:02.023Z,17.50
2022-07-31T14:42:28.974Z,17.42
2022-07-31T14:44:55.866Z,17.41
2022-07-31T14:47:23.129Z,17.39
2022-07-31T14:50:09.151Z,17.46
2022-07-31T14:52:38.067Z,17.44
2022-07-31T14:55:05.777Z,17.51
2022-07-31T14:57:33.164Z,17.57
2022-07-31T15:00:12.509Z,17.47
2022-07-31T15:02:43.139Z,17.48
2022-07-31T15:06:38.627Z,17.58
2022-07-31T15:07:58.519Z,17.66
2022-07-31T15:10:25.374Z,17.87
2022-07-31T15:12:52.179Z,17.83
2022-07-31T15:15:19.092Z,17.80
2022-07-31T15:17:46.382Z,17.87
2022-07-31T15:20:13.935Z,17.91
2022-07-31T15:22:40.879Z,18.05
2022-07-31T15:25:08.737Z,18.00
2022-07-31T15:27:35.681Z,17.97
2022-07-31T15:30:07.136Z,18.03
2022-07-31T15:32:39.017Z,18.03
2022-07-31T15:35:08.262Z,18.14
2022-07-31T15:37:36.826Z,18.19
2022-07-31T15:40:09.232Z,18.23
2022-07-31T15:42:38.463Z,18.16
2022-07-31T15:45:07.306Z,18.16
2022-07-31T15:47:35.233Z,17.70
2022-07-31T15:50:02.374Z,17.75
2022-07-31T15:52:29.357Z,17.79
2022-07-31T15:54:56.218Z,17.70
2022-07-31T15:57:23.880Z,17.71
2022-07-31T15:59:55.683Z,17.62
2022-07-31T16:02:25.997Z,17.65
2022-07-31T16:04:54.873Z,17.64
2022-07-31T16:08:30.767Z,17.63
2022-07-31T16:10:17.942Z,17.70
2022-07-31T16:12:48.419Z,17.67
2022-07-31T16:15:16.734Z,17.68
2022-07-31T16:17:44.880Z,17.63
2022-07-31T16:20:25.581Z,17.65
2022-07-31T16:23:01.525Z,17.77
2022-07-31T16:25:30.032Z,17.84
2022-07-31T16:27:59.397Z,17.89
2022-07-31T16:30:27.391Z,17.97
2022-07-31T16:32:55.018Z,18.21
2022-07-31T16:35:22.008Z,18.26
2022-07-31T16:37:52.627Z,18.33
2022-07-31T16:40:30.103Z,18.36
2022-07-31T16:43:48.617Z,18.46
2022-07-31T16:45:50.285Z,18.41
2022-07-31T16:48:17.654Z,18.49
2022-07-31T16:50:44.781Z,18.35
2022-07-31T16:54:10.048Z,18.60
2022-07-31T16:56:02.336Z,18.63
2022-07-31T16:58:29.473Z,18.52
2022-07-31T17:00:56.485Z,18.41
2022-07-31T17:03:58.926Z,18.39
2022-07-31T17:06:11.670Z,18.40
2022-07-31T17:08:38.580Z,18.60
2022-07-31T17:11:05.878Z,18.57
2022-07-31T17:13:32.779Z,18.52
2022-07-31T17:15:59.681Z,18.46
2022-07-31T17:18:26.729Z,18.30
2022-07-31T17:20:56.031Z,18.51
2022-07-31T17:23:43.691Z,18.55
2022-07-31T17:26:21.654Z,18.52
2022-07-31T17:28:50.768Z,18.50
2022-07-31T17:31:18.849Z,18.53
2022-07-31T17:33:59.195Z,18.43
2022-07-31T17:36:27.221Z,18.10
2022-07-31T17:38:54.082Z,18.35
2022-07-31T17:41:25.544Z,18.10
2022-07-31T17:43:54.451Z,18.33
2022-07-31T17:46:28.153Z,18.32
2022-07-31T17:49:02.044Z,18.27
2022-07-31T17:51:29.012Z,18.04
2022-07-31T17:53:59.232Z,17.97
2022-07-31T17:56:27.019Z,18.05
2022-07-31T17:58:55.577Z,18.11
2022-07-31T18:01:28.430Z,18.12
2022-07-31T18:03:56.173Z,18.12
2022-07-31T18:06:23.502Z,18.11
2022-07-31T18:08:50.365Z,18.02
2022-07-31T18:11:17.531Z,18.11
2022-07-31T18:13:48.489Z,18.08
2022-07-31T18:16:19.220Z,18.09
2022-07-31T18:18:46.388Z,18.12
2022-07-31T18:21:14.276Z,18.07
2022-07-31T18:23:43.513Z,17.80
2022-07-31T18:26:14.535Z,17.71
2022-07-31T18:28:41.718Z,17.74
2022-07-31T18:31:31.620Z,17.86
2022-07-31T18:33:55.551Z,17.87
2022-07-31T18:36:22.390Z,17.85
2022-07-31T18:38:49.313Z,17.86
2022-07-31T18:41:16.399Z,17.85
2022-07-31T18:43:43.310Z,17.79
2022-07-31T18:46:10.268Z,17.78
2022-07-31T18:48:37.103Z,17.75
2022-07-31T18:51:05.468Z,17.59
2022-07-31T18:53:33.411Z,17.69
2022-07-31T18:56:00.429Z,17.65
2022-07-31T18:58:27.399Z,17.66
2022-07-31T19:00:55.746Z,17.65
2022-07-31T19:03:24.332Z,17.14
2022-07-31T19:05:53.078Z,17.16
2022-07-31T19:08:21.006Z,17.48
2022-07-31T19:10:49.610Z,17.47
2022-07-31T19:13:18.633Z,17.19
2022-07-31T19:15:50.511Z,16.84
2022-07-31T19:18:17.725Z,17.14
2022-07-31T19:21:00.035Z,17.35
2022-07-31T19:23:39.389Z,17.48
2022-07-31T19:26:06.303Z,17.27
2022-07-31T19:28:33.645Z,17.56
2022-07-31T19:31:01.026Z,17.53
2022-07-31T19:33:28.010Z,17.70
2022-07-31T19:36:00.691Z,17.67
2022-07-31T19:38:30.348Z,17.63
2022-07-31T19:40:57.286Z,17.59
2022-07-31T19:43:24.272Z,17.62
2022-07-31T19:45:59.824Z,17.62
2022-07-31T19:48:44.912Z,17.61
2022-07-31T19:51:13.491Z,17.66
2022-07-31T19:53:41.624Z,17.59
2022-07-31T19:56:09.300Z,17.36
2022-07-31T19:58:36.963Z,17.33
2022-07-31T20:01:05.110Z,17.29
2022-07-31T20:03:32.418Z,17.31
2022-07-31T20:05:59.489Z,17.43
2022-07-31T20:08:26.704Z,17.45
2022-07-31T20:11:02.638Z,17.40
2022-07-31T20:13:30.455Z,17.45
2022-07-31T20:15:58.246Z,17.42
2022-07-31T20:18:29.239Z,17.47
2022-07-31T20:21:03.345Z,17.48
2022-07-31T20:23:34.645Z,17.49
2022-07-31T20:26:01.585Z,17.50
2022-07-31T20:28:28.563Z,17.50
2022-07-31T20:30:55.444Z,17.51
2022-07-31T20:33:22.329Z,17.46
2022-07-31T20:35:50.292Z,17.53
2022-07-31T20:38:21.656Z,17.54
2022-07-31T20:40:53.654Z,17.53
2022-07-31T20:43:22.360Z,17.59
2022-07-31T20:45:49.277Z,17.60
2022-07-31T20:48:18.961Z,17.55
2022-07-31T20:50:48.150Z,17.63
2022-07-31T20:53:16.548Z,17.63
2022-07-31T20:55:49.344Z,17.51
2022-07-31T20:58:21.014Z,17.50
2022-07-31T21:00:48.890Z,17.53
2022-07-31T21:03:16.876Z,17.46
2022-07-31T21:05:44.648Z,17.49
2022-07-31T21:08:12.104Z,17.53
2022-07-31T21:10:39.362Z,17.52
2022-07-31T21:13:06.292Z,17.49
2022-07-31T21:15:42.116Z,17.46
2022-07-31T21:18:12.977Z,17.51
2022-07-31T21:20:52.443Z,17.48
2022-07-31T21:23:21.743Z,17.46
2022-07-31T21:25:49.042Z,17.46
2022-07-31T21:28:16.296Z,17.09
2022-07-31T21:30:43.484Z,17.29
2022-07-31T21:33:10.613Z,17.32
2022-07-31T21:35:39.935Z,17.36
2022-07-31T21:38:11.839Z,17.41
2022-07-31T21:40:40.095Z,17.42
2022-07-31T21:43:07.585Z,17.44
2022-07-31T21:45:50.963Z,17.44
2022-07-31T21:48:22.819Z,17.47
2022-07-31T21:50:50.271Z,17.46
2022-07-31T21:53:17.201Z,17.41
2022-07-31T21:55:44.151Z,17.14
2022-07-31T21:58:11.118Z,17.16
2022-07-31T22:00:38.257Z,17.16
2022-07-31T22:03:05.645Z,17.25
2022-07-31T22:05:51.743Z,17.23
2022-07-31T22:08:18.844Z,17.26
2022-07-31T22:10:46.021Z,17.21
2022-07-31T22:13:15.884Z,17.18
2022-07-31T22:15:55.456Z,17.19
2022-07-31T22:18:32.786Z,17.14
2022-07-31T22:21:01.397Z,17.11
2022-07-31T22:23:29.295Z,17.02
2022-07-31T22:25:57.222Z,16.94
2022-07-31T22:28:25.306Z,16.96
2022-07-31T22:30:52.920Z,16.96
2022-07-31T22:33:20.291Z,16.87
2022-07-31T22:35:59.645Z,16.92
2022-07-31T22:38:31.360Z,16.79
2022-07-31T22:40:59.725Z,16.82
2022-07-31T22:44:10.316Z,16.77
2022-07-31T22:46:15.043Z,16.74
2022-07-31T22:48:42.111Z,16.73
2022-07-31T22:51:10.685Z,16.63
2022-07-31T22:53:39.677Z,16.59
2022-07-31T22:56:06.548Z,16.44
2022-07-31T22:58:33.499Z,16.38
2022-07-31T23:01:00.431Z,16.24
2022-07-31T23:03:27.379Z,16.24
2022-07-31T23:06:27.960Z,16.03
2022-07-31T23:08:41.428Z,16.08
2022-07-31T23:11:08.277Z,16.02
2022-07-31T23:13:35.186Z,16.02
2022-07-31T23:16:02.061Z,15.95
2022-07-31T23:18:28.887Z,15.91
2022-07-31T23:20:55.737Z,15.90
2022-07-31T23:23:22.580Z,15.56
2022-07-31T23:25:49.818Z,15.54
2022-07-31T23:28:16.649Z,15.58
2022-07-31T23:30:43.579Z,15.55
2022-07-31T23:33:12.347Z,15.33
2022-07-31T23:35:39.278Z,15.43
2022-07-31T23:38:06.072Z,15.42
2022-07-31T23:40:38.697Z,15.42
2022-07-31T23:43:05.584Z,15.39
2022-07-31T23:45:32.463Z,15.17
2022-07-31T23:47:59.308Z,15.23
2022-07-31T23:50:26.905Z,15.26
2022-07-31T23:52:53.875Z,15.21
2022-07-31T23:55:20.895Z,15.21
2022-07-31T23:57:47.932Z,15.21
